Adriatic Princess — IVPQ — position and weather

sailwx.info

Track history (hours):
 
Tides and Currents Weather Stations Pressure Air Temp Water Temp Dewpoint Dewpoint Depression Visibility Wind Speed Wind Dir Waves Ship Positions

Adriatic Princess

Last reported at 2017-Jun-28 11:25 UTC. Time now 2017-Jun-28 12:04 UTC.
Position N 40°49' E 014°07'.

Length 32 m; draft 1.8 m.

Type: Ship (hazmat cat B). MMSI: 247165700.

Date/timePositionNaut miles runAvg speedWind from/ knotsBaromVisibWave heightAir tempDewpointWater temp
2017-Jun-28 11:25N 40°49' E 014°07'0 0.0
2017-Jun-28 11:00N 40°49' E 014°07'0 0.1
2017-Jun-28 08:43N 40°49' E 014°07'312.8
2017-Jun-28 08:30N 40°47' E 014°06'7 7.0
2017-Jun-28 07:27N 40°45' E 013°56'612.9
2017-Jun-28 06:59N 40°46' E 014°04'4 0.3
2017-Jun-27 18:07N 40°49' E 014°07'212.2
2017-Jun-27 17:58N 40°48' E 014°06'8 6.8
2017-Jun-27 16:51N 40°45' E 013°57'412.3
2017-Jun-27 16:30N 40°46' E 014°02'5 6.7
2017-Jun-27 15:46N 40°49' E 014°07'413.5
2017-Jun-27 15:30N 40°46' E 014°05'7 2.4
2017-Jun-27 12:39N 40°45' E 013°56'0 0.0
2017-Jun-27 12:29N 40°45' E 013°56'510.7
2017-Jun-27 12:00N 40°46' E 014°03'4 6.3
2017-Jun-27 11:18N 40°49' E 014°07'412.2
2017-Jun-27 11:00N 40°46' E 014°04'3 2.2
2017-Jun-27 09:47N 40°46' E 014°01'413.6
2017-Jun-27 09:30N 40°47' E 014°06'1 1.6
2017-Jun-27 08:34N 40°48' E 014°06'114.6
2017-Jun-27 08:29N 40°47' E 014°06'713.9
2017-Jun-27 08:00N 40°45' E 013°57'1 1.1
2017-Jun-27 07:24N 40°45' E 013°57'613.7
2017-Jun-27 06:59N 40°46' E 014°04'4 0.2
2017-Jun-26 15:53N 40°49' E 014°07'1 1.6
2017-Jun-26 15:30N 40°49' E 014°06'611.8
2017-Jun-26 15:00N 40°46' E 013°60'3 2.1
2017-Jun-26 13:36N 40°45' E 013°56'0 0.0
2017-Jun-26 12:08N 40°45' E 013°56'1 6.7
2017-Jun-26 11:59N 40°45' E 013°57'713.8
2017-Jun-26 11:31N 40°47' E 014°06'3 5.7
2017-Jun-26 11:00N 40°49' E 014°07'0 0.0
2017-Jun-26 10:30N 40°49' E 014°07'0 0.0
2017-Jun-26 10:00N 40°49' E 014°07'0 0.0
2017-Jun-26 09:30N 40°49' E 014°07'2 1.8
2017-Jun-26 08:21N 40°47' E 014°06'7 6.7
2017-Jun-26 07:16N 40°45' E 013°57'614.5
2017-Jun-26 06:52N 40°46' E 014°05'4 8.6
2017-Jun-26 06:28N 40°49' E 014°07'0 0.0
2017-Jun-26 05:55N 40°49' E 014°07'0 0.0
2017-Jun-25 18:04N 40°49' E 014°07'0 0.6
2017-Jun-25 18:00N 40°49' E 014°07'3 5.4
2017-Jun-25 17:30N 40°47' E 014°06'7 8.9
2017-Jun-25 16:40N 40°45' E 013°56'413.3
2017-Jun-25 16:23N 40°46' E 014°01'511.5
2017-Jun-25 15:57N 40°49' E 014°06'1 2.2
2017-Jun-25 15:31N 40°48' E 014°06'712.8
2017-Jun-25 14:58N 40°45' E 013°58'1 2.6
2017-Jun-25 14:28N 40°45' E 013°56'0 0.0
2017-Jun-25 12:46N 40°45' E 013°56'0 0.0
2017-Jun-25 12:30N 40°45' E 013°56'2 4.3
2017-Jun-25 11:57N 40°46' E 013°59'612.5
2017-Jun-25 11:30N 40°48' E 014°06'0 1.0
2017-Jun-25 11:01N 40°47' E 014°06'713.8
2017-Jun-25 10:31N 40°45' E 013°57'2 4.1
2017-Jun-25 10:00N 40°46' E 013°60'4 8.2
2017-Jun-25 09:30N 40°46' E 014°05'3 4.4
2017-Jun-25 08:48N 40°49' E 014°07'411.6
2017-Jun-25 08:29N 40°46' E 014°04'6 8.2
2017-Jun-25 07:46N 40°45' E 013°57'414.2
2017-Jun-25 07:30N 40°46' E 014°01'2 4.1
2017-Jun-25 07:00N 40°46' E 014°04'4 0.3
2017-Jun-24 17:48N 40°49' E 014°07'9 7.5
2017-Jun-24 16:35N 40°45' E 013°56'214.0
2017-Jun-24 16:26N 40°46' E 013°59'613.5
2017-Jun-24 16:00N 40°48' E 014°06'0 0.1
2017-Jun-24 15:31N 40°48' E 014°06'8 3.9
2017-Jun-24 13:28N 40°45' E 013°56'0 0.0
2017-Jun-24 12:34N 40°45' E 013°56'0 0.0
2017-Jun-24 12:28N 40°45' E 013°56'2 3.3
2017-Jun-24 11:58N 40°46' E 013°58'613.3
2017-Jun-24 11:31N 40°47' E 014°06'1 1.3
2017-Jun-24 10:59N 40°48' E 014°06'713.3
2017-Jun-24 10:29N 40°45' E 013°58'3 4.2
2017-Jun-24 09:52N 40°46' E 014°01'411.4
2017-Jun-24 09:30N 40°48' E 014°06'2 1.8
2017-Jun-24 08:38N 40°49' E 014°07'212.2
2017-Jun-24 08:29N 40°48' E 014°06'0 0.3
2017-Jun-24 06:44N 40°48' E 014°06'2 1.9
2017-Jun-24 05:54N 40°49' E 014°07'0 0.0
2017-Jun-23 15:44N 40°49' E 014°07'311.1
2017-Jun-23 15:30N 40°47' E 014°06'811.3
2017-Jun-23 14:50N 40°45' E 013°56'0 0.0
2017-Jun-23 14:29N 40°45' E 013°56'0 0.0
2017-Jun-23 12:41N 40°45' E 013°56'0 0.0
2017-Jun-23 12:28N 40°45' E 013°56'0 1.0
2017-Jun-23 12:00N 40°45' E 013°57'713.3
2017-Jun-23 11:30N 40°46' E 014°05'3 1.1
2017-Jun-23 08:40N 40°49' E 014°07'213.0
2017-Jun-23 08:30N 40°47' E 014°06'713.4
2017-Jun-23 07:59N 40°45' E 013°57'1 1.3
2017-Jun-23 07:22N 40°45' E 013°57'513.3
2017-Jun-23 06:58N 40°46' E 014°03'4 6.9
2017-Jun-23 06:23N 40°49' E 014°07'0 0.0
2017-Jun-23 05:59N 40°49' E 014°07'0 0.0
2017-Jun-22 16:00N 40°49' E 014°07'3 6.6
2017-Jun-22 15:30N 40°46' E 014°05'713.3
2017-Jun-22 15:00N 40°45' E 013°57'0 0.2
2017-Jun-22 12:20N 40°45' E 013°56'0 0.0
2017-Jun-22 12:00N 40°45' E 013°56'611.5
2017-Jun-22 11:30N 40°46' E 014°04'4 5.0
2017-Jun-22 10:42N 40°49' E 014°07'0 0.0
2017-Jun-22 10:29N 40°49' E 014°07'9 3.0
2017-Jun-22 07:26N 40°45' E 013°56'613.1
2017-Jun-22 06:59N 40°47' E 014°04'4 0.3
2017-Jun-21 16:01N 40°49' E 014°07'0 0.6
2017-Jun-21 15:42N 40°49' E 014°07'212.1
2017-Jun-21 15:30N 40°47' E 014°06'811.0
2017-Jun-21 14:48N 40°45' E 013°56'0 0.0
2017-Jun-21 14:24N 40°45' E 013°56'0 0.0
2017-Jun-21 12:14N 40°45' E 013°56'0 0.8
2017-Jun-21 12:00N 40°45' E 013°56'612.6
2017-Jun-21 11:30N 40°46' E 014°05'3 1.2
2017-Jun-21 08:35N 40°49' E 014°07'112.9
2017-Jun-21 08:30N 40°48' E 014°06'712.5
2017-Jun-21 07:55N 40°45' E 013°58'1 1.8
2017-Jun-21 07:24N 40°45' E 013°57'513.3
2017-Jun-21 07:00N 40°46' E 014°03'4 0.3
2017-Jun-20 15:33N 40°49' E 014°07'111.5
2017-Jun-20 15:29N 40°49' E 014°06'612.6
2017-Jun-20 15:00N 40°46' E 013°59'2 0.6
2017-Jun-20 11:38N 40°46' E 014°01'213.4
2017-Jun-20 11:28N 40°47' E 014°04'4 2.5
2017-Jun-20 10:03N 40°49' E 014°07'0 0.0
2017-Jun-20 09:48N 40°49' E 014°07'0 0.0
2017-Jun-20 09:21N 40°49' E 014°07'0 0.0
2017-Jun-20 09:00N 40°49' E 014°07'3 6.5
2017-Jun-20 08:30N 40°47' E 014°06'7 6.1
2017-Jun-20 07:24N 40°45' E 013°57'513.2
2017-Jun-20 07:00N 40°47' E 014°03'  
Track history (hours):
 
Tides and Currents Weather Stations Pressure Air Temp Water Temp Dewpoint Dewpoint Depression Visibility Wind Speed Wind Dir Waves Ship Positions

Adriatic Princess

Last reported at 2017-Jun-28 11:25 UTC. Time now 2017-Jun-28 12:04 UTC.
Position N 40°49' E 014°07'.

Length 32 m; draft 1.8 m.

Type: Ship (hazmat cat B). MMSI: 247165700.

Date/timePositionNaut miles runAvg speedWind from/ knotsBaromVisibWave heightAir tempDewpointWater temp
2017-Jun-28 11:25N 40°49' E 014°07'0 0.0
2017-Jun-28 11:00N 40°49' E 014°07'0 0.1
2017-Jun-28 08:43N 40°49' E 014°07'312.8
2017-Jun-28 08:30N 40°47' E 014°06'7 7.0
2017-Jun-28 07:27N 40°45' E 013°56'612.9
2017-Jun-28 06:59N 40°46' E 014°04'4 0.3
2017-Jun-27 18:07N 40°49' E 014°07'212.2
2017-Jun-27 17:58N 40°48' E 014°06'8 6.8
2017-Jun-27 16:51N 40°45' E 013°57'412.3
2017-Jun-27 16:30N 40°46' E 014°02'5 6.7
2017-Jun-27 15:46N 40°49' E 014°07'413.5
2017-Jun-27 15:30N 40°46' E 014°05'7 2.4
2017-Jun-27 12:39N 40°45' E 013°56'0 0.0
2017-Jun-27 12:29N 40°45' E 013°56'510.7
2017-Jun-27 12:00N 40°46' E 014°03'4 6.3
2017-Jun-27 11:18N 40°49' E 014°07'412.2
2017-Jun-27 11:00N 40°46' E 014°04'3 2.2
2017-Jun-27 09:47N 40°46' E 014°01'413.6
2017-Jun-27 09:30N 40°47' E 014°06'1 1.6
2017-Jun-27 08:34N 40°48' E 014°06'114.6
2017-Jun-27 08:29N 40°47' E 014°06'713.9
2017-Jun-27 08:00N 40°45' E 013°57'1 1.1
2017-Jun-27 07:24N 40°45' E 013°57'613.7
2017-Jun-27 06:59N 40°46' E 014°04'4 0.2
2017-Jun-26 15:53N 40°49' E 014°07'1 1.6
2017-Jun-26 15:30N 40°49' E 014°06'611.8
2017-Jun-26 15:00N 40°46' E 013°60'3 2.1
2017-Jun-26 13:36N 40°45' E 013°56'0 0.0
2017-Jun-26 12:08N 40°45' E 013°56'1 6.7
2017-Jun-26 11:59N 40°45' E 013°57'713.8
2017-Jun-26 11:31N 40°47' E 014°06'3 5.7
2017-Jun-26 11:00N 40°49' E 014°07'0 0.0
2017-Jun-26 10:30N 40°49' E 014°07'0 0.0
2017-Jun-26 10:00N 40°49' E 014°07'0 0.0
2017-Jun-26 09:30N 40°49' E 014°07'2 1.8
2017-Jun-26 08:21N 40°47' E 014°06'7 6.7
2017-Jun-26 07:16N 40°45' E 013°57'614.5
2017-Jun-26 06:52N 40°46' E 014°05'4 8.6
2017-Jun-26 06:28N 40°49' E 014°07'0 0.0
2017-Jun-26 05:55N 40°49' E 014°07'0 0.0
2017-Jun-25 18:04N 40°49' E 014°07'0 0.6
2017-Jun-25 18:00N 40°49' E 014°07'3 5.4
2017-Jun-25 17:30N 40°47' E 014°06'7 8.9
2017-Jun-25 16:40N 40°45' E 013°56'413.3
2017-Jun-25 16:23N 40°46' E 014°01'511.5
2017-Jun-25 15:57N 40°49' E 014°06'1 2.2
2017-Jun-25 15:31N 40°48' E 014°06'712.8
2017-Jun-25 14:58N 40°45' E 013°58'1 2.6
2017-Jun-25 14:28N 40°45' E 013°56'0 0.0
2017-Jun-25 12:46N 40°45' E 013°56'0 0.0
2017-Jun-25 12:30N 40°45' E 013°56'2 4.3
2017-Jun-25 11:57N 40°46' E 013°59'612.5
2017-Jun-25 11:30N 40°48' E 014°06'0 1.0
2017-Jun-25 11:01N 40°47' E 014°06'713.8
2017-Jun-25 10:31N 40°45' E 013°57'2 4.1
2017-Jun-25 10:00N 40°46' E 013°60'4 8.2
2017-Jun-25 09:30N 40°46' E 014°05'3 4.4
2017-Jun-25 08:48N 40°49' E 014°07'411.6
2017-Jun-25 08:29N 40°46' E 014°04'6 8.2
2017-Jun-25 07:46N 40°45' E 013°57'414.2
2017-Jun-25 07:30N 40°46' E 014°01'2 4.1
2017-Jun-25 07:00N 40°46' E 014°04'4 0.3
2017-Jun-24 17:48N 40°49' E 014°07'9 7.5
2017-Jun-24 16:35N 40°45' E 013°56'214.0
2017-Jun-24 16:26N 40°46' E 013°59'613.5
2017-Jun-24 16:00N 40°48' E 014°06'0 0.1
2017-Jun-24 15:31N 40°48' E 014°06'8 3.9
2017-Jun-24 13:28N 40°45' E 013°56'0 0.0
2017-Jun-24 12:34N 40°45' E 013°56'0 0.0
2017-Jun-24 12:28N 40°45' E 013°56'2 3.3
2017-Jun-24 11:58N 40°46' E 013°58'613.3
2017-Jun-24 11:31N 40°47' E 014°06'1 1.3
2017-Jun-24 10:59N 40°48' E 014°06'713.3
2017-Jun-24 10:29N 40°45' E 013°58'3 4.2
2017-Jun-24 09:52N 40°46' E 014°01'411.4
2017-Jun-24 09:30N 40°48' E 014°06'2 1.8
2017-Jun-24 08:38N 40°49' E 014°07'212.2
2017-Jun-24 08:29N 40°48' E 014°06'0 0.3
2017-Jun-24 06:44N 40°48' E 014°06'2 1.9
2017-Jun-24 05:54N 40°49' E 014°07'0 0.0
2017-Jun-23 15:44N 40°49' E 014°07'311.1
2017-Jun-23 15:30N 40°47' E 014°06'811.3
2017-Jun-23 14:50N 40°45' E 013°56'0 0.0
2017-Jun-23 14:29N 40°45' E 013°56'0 0.0
2017-Jun-23 12:41N 40°45' E 013°56'0 0.0
2017-Jun-23 12:28N 40°45' E 013°56'0 1.0
2017-Jun-23 12:00N 40°45' E 013°57'713.3
2017-Jun-23 11:30N 40°46' E 014°05'3 1.1
2017-Jun-23 08:40N 40°49' E 014°07'213.0
2017-Jun-23 08:30N 40°47' E 014°06'713.4
2017-Jun-23 07:59N 40°45' E 013°57'1 1.3
2017-Jun-23 07:22N 40°45' E 013°57'513.3
2017-Jun-23 06:58N 40°46' E 014°03'4 6.9
2017-Jun-23 06:23N 40°49' E 014°07'0 0.0
2017-Jun-23 05:59N 40°49' E 014°07'0 0.0
2017-Jun-22 16:00N 40°49' E 014°07'3 6.6
2017-Jun-22 15:30N 40°46' E 014°05'713.3
2017-Jun-22 15:00N 40°45' E 013°57'0 0.2
2017-Jun-22 12:20N 40°45' E 013°56'0 0.0
2017-Jun-22 12:00N 40°45' E 013°56'611.5
2017-Jun-22 11:30N 40°46' E 014°04'4 5.0
2017-Jun-22 10:42N 40°49' E 014°07'0 0.0
2017-Jun-22 10:29N 40°49' E 014°07'9 3.0
2017-Jun-22 07:26N 40°45' E 013°56'613.1
2017-Jun-22 06:59N 40°47' E 014°04'4 0.3
2017-Jun-21 16:01N 40°49' E 014°07'0 0.6
2017-Jun-21 15:42N 40°49' E 014°07'212.1
2017-Jun-21 15:30N 40°47' E 014°06'811.0
2017-Jun-21 14:48N 40°45' E 013°56'0 0.0
2017-Jun-21 14:24N 40°45' E 013°56'0 0.0
2017-Jun-21 12:14N 40°45' E 013°56'0 0.8
2017-Jun-21 12:00N 40°45' E 013°56'612.6
2017-Jun-21 11:30N 40°46' E 014°05'3 1.2
2017-Jun-21 08:35N 40°49' E 014°07'112.9
2017-Jun-21 08:30N 40°48' E 014°06'712.5
2017-Jun-21 07:55N 40°45' E 013°58'1 1.8
2017-Jun-21 07:24N 40°45' E 013°57'513.3
2017-Jun-21 07:00N 40°46' E 014°03'4 0.3
2017-Jun-20 15:33N 40°49' E 014°07'111.5
2017-Jun-20 15:29N 40°49' E 014°06'612.6
2017-Jun-20 15:00N 40°46' E 013°59'2 0.6
2017-Jun-20 11:38N 40°46' E 014°01'213.4
2017-Jun-20 11:28N 40°47' E 014°04'4 2.5
2017-Jun-20 10:03N 40°49' E 014°07'0 0.0
2017-Jun-20 09:48N 40°49' E 014°07'0 0.0
2017-Jun-20 09:21N 40°49' E 014°07'0 0.0
2017-Jun-20 09:00N 40°49' E 014°07'3 6.5
2017-Jun-20 08:30N 40°47' E 014°06'7 6.1
2017-Jun-20 07:24N 40°45' E 013°57'513.2
2017-Jun-20 07:00N 40°47' E 014°03'  

Dump ship's entire track history